Time;durP1;ratioP1;P1;durP2;ratioP2;P2;SDS_P1;SDS_P2;PMS_P1;PMS_P2;Temp;Humidity;BMP_temperature;BMP_pressure;BME280_temperature;BME280_humidity;BME280_pressure;Samples;Min_cycle;Max_cycle;Signal;HPM_P1;HPM_P2
2023/04/12 00:00:34;;;;;;;10.13;1.80;;;9.10;99.90;;;;;;5096107;28;20032;-72
2023/04/12 00:03:02;;;;;;;10.48;1.80;;;9.20;99.90;;;;;;5096051;28;20056;-72
2023/04/12 00:05:29;;;;;;;8.48;1.80;;;9.30;99.90;;;;;;5096458;28;20043;-73
2023/04/12 00:07:55;;;;;;;11.40;2.17;;;9.20;99.90;;;;;;5095143;28;20039;-72
2023/04/12 00:10:21;;;;;;;10.60;2.10;;;9.20;99.90;;;;;;5096086;28;20047;-72
2023/04/12 00:12:48;;;;;;;7.15;1.88;;;9.30;99.90;;;;;;5096399;28;20054;-72
2023/04/12 00:15:14;;;;;;;9.02;1.92;;;9.30;99.90;;;;;;5096381;28;20074;-72
2023/04/12 00:17:40;;;;;;;10.40;1.83;;;9.20;99.90;;;;;;5096055;28;20415;-72
2023/04/12 00:20:10;;;;;;;10.27;1.70;;;9.20;99.90;;;;;;5095946;28;20034;-72
2023/04/12 00:22:42;;;;;;;12.07;2.55;;;9.20;99.90;;;;;;5096078;28;20040;-72
2023/04/12 00:25:09;;;;;;;13.68;2.08;;;9.20;99.90;;;;;;5096284;28;20047;-73
2023/04/12 00:27:35;;;;;;;11.07;1.80;;;9.20;99.90;;;;;;5098384;28;20032;-72
2023/04/12 00:30:02;;;;;;;12.95;2.13;;;9.30;99.90;;;;;;5100717;28;20040;-72
2023/04/12 00:32:28;;;;;;;9.60;2.00;;;9.40;99.90;;;;;;5099513;28;20089;-72
2023/04/12 00:34:53;;;;;;;11.98;2.00;;;9.40;99.90;;;;;;5098416;28;20039;-72
2023/04/12 00:37:19;;;;;;;8.43;1.90;;;9.50;99.90;;;;;;5099687;28;20039;-72
2023/04/12 00:39:45;;;;;;;10.57;2.40;;;9.40;99.90;;;;;;5098663;28;20433;-72
2023/04/12 00:42:11;;;;;;;9.98;1.80;;;9.40;99.90;;;;;;5099550;28;20379;-73
2023/04/12 00:44:37;;;;;;;7.70;2.08;;;9.50;99.90;;;;;;5099288;28;20055;-72
2023/04/12 00:47:04;;;;;;;12.32;2.22;;;9.50;99.90;;;;;;5099209;28;20032;-72
2023/04/12 00:49:30;;;;;;;15.23;2.30;;;9.40;99.90;;;;;;5098807;28;20338;-73
2023/04/12 00:52:16;;;;;;;13.38;2.15;;;9.50;99.90;;;;;;5099482;28;20067;-72
2023/04/12 00:54:43;;;;;;;12.35;1.70;;;9.60;99.90;;;;;;5099291;28;20051;-72
2023/04/12 00:57:09;;;;;;;9.02;1.73;;;9.60;99.90;;;;;;5099315;28;20086;-72
2023/04/12 00:59:35;;;;;;;12.15;2.22;;;9.70;99.90;;;;;;5098996;28;20425;-72
2023/04/12 01:02:01;;;;;;;12.82;2.00;;;9.70;99.90;;;;;;5098755;28;20067;-71
2023/04/12 01:04:27;;;;;;;11.73;1.92;;;9.80;99.90;;;;;;5098184;28;20096;-72
2023/04/12 01:07:20;;;;;;;7.97;1.60;;;9.80;99.90;;;;;;5099133;28;20032;-72
2023/04/12 01:10:23;;;;;;;8.70;1.10;;;9.70;99.90;;;;;;5098977;28;20047;-73
2023/04/12 01:13:01;;;;;;;13.07;2.13;;;9.80;99.90;;;;;;5097785;28;20078;-72
2023/04/12 01:15:31;;;;;;;13.40;2.30;;;9.70;99.90;;;;;;5099103;28;20047;-72
2023/04/12 01:18:04;;;;;;;7.95;1.75;;;9.70;99.90;;;;;;5098999;28;20035;-72
2023/04/12 01:20:36;;;;;;;14.38;2.25;;;9.60;99.90;;;;;;5098222;28;20087;-72
2023/04/12 01:23:32;;;;;;;10.90;2.10;;;9.70;99.90;;;;;;5098867;28;20032;-72
2023/04/12 01:26:31;;;;;;;9.57;1.77;;;9.70;99.90;;;;;;5098781;28;20039;-72
2023/04/12 01:29:00;;;;;;;10.50;1.90;;;9.60;99.90;;;;;;5098799;28;20036;-72
2023/04/12 01:31:28;;;;;;;16.42;2.20;;;9.50;99.90;;;;;;5098663;28;20043;-72
2023/04/12 01:33:55;;;;;;;9.35;1.83;;;9.50;99.90;;;;;;5098578;28;20044;-73
2023/04/12 01:36:25;;;;;;;11.13;2.00;;;9.60;99.90;;;;;;5098526;28;20043;-72
2023/04/12 01:38:51;;;;;;;10.90;1.67;;;9.50;99.90;;;;;;5098149;28;20040;-72
2023/04/12 01:41:17;;;;;;;10.68;1.70;;;9.70;99.90;;;;;;5098334;28;20058;-72
2023/04/12 01:43:44;;;;;;;9.35;1.77;;;9.70;99.90;;;;;;5097449;28;20036;-72
2023/04/12 01:46:13;;;;;;;13.05;2.40;;;9.60;99.90;;;;;;5098364;28;20036;-72
2023/04/12 01:48:52;;;;;;;11.93;2.00;;;9.60;99.90;;;;;;5098287;28;20101;-72
2023/04/12 01:51:37;;;;;;;15.60;1.95;;;9.70;99.90;;;;;;5079674;28;20094;-71
2023/04/12 01:54:10;;;;;;;9.98;2.00;;;9.70;99.90;;;;;;5098265;28;20332;-72
2023/04/12 01:56:38;;;;;;;9.05;2.38;;;9.60;99.90;;;;;;5097159;28;20040;-72
2023/04/12 01:59:05;;;;;;;9.07;2.10;;;9.50;99.90;;;;;;5098095;28;20107;-72
2023/04/12 02:01:30;;;;;;;12.63;1.77;;;9.50;99.90;;;;;;5096987;28;20044;-71
2023/04/12 02:03:59;;;;;;;8.15;1.90;;;9.40;99.90;;;;;;5097942;28;20105;-72
2023/04/12 02:06:26;;;;;;;8.23;2.08;;;9.50;99.90;;;;;;5097952;28;20028;-72
2023/04/12 02:09:02;;;;;;;11.93;3.28;;;9.40;99.90;;;;;;5097935;28;20062;-72
2023/04/12 02:11:28;;;;;;;;;;;9.40;99.90;;;;;;5098373;28;20044;-72
2023/04/12 02:13:54;;;;;;;12.70;2.83;;;9.40;99.90;;;;;;5097832;28;19938;-72
2023/04/12 02:16:21;;;;;;;11.40;1.90;;;9.30;99.90;;;;;;5097820;28;20032;-72
2023/04/12 02:18:50;;;;;;;14.23;2.53;;;9.40;99.90;;;;;;5097502;28;20119;-72
2023/04/12 02:21:17;;;;;;;12.10;2.15;;;9.40;99.90;;;;;;5097217;28;20036;-72
2023/04/12 02:23:43;;;;;;;9.55;2.25;;;9.30;99.90;;;;;;5097661;28;20131;-72
2023/04/12 02:26:11;;;;;;;15.73;2.55;;;9.30;99.90;;;;;;5097656;28;20111;-72
2023/04/12 02:28:38;;;;;;;8.50;2.00;;;9.20;99.90;;;;;;5097314;28;20046;-72
2023/04/12 02:31:07;;;;;;;9.43;2.20;;;9.20;99.90;;;;;;5096474;28;20490;-72
2023/04/12 02:33:33;;;;;;;9.05;2.10;;;9.20;99.90;;;;;;5097156;28;20085;-72
2023/04/12 02:36:01;;;;;;;17.27;2.28;;;9.30;99.90;;;;;;5097430;28;20048;-72
2023/04/12 02:38:28;;;;;;;7.47;1.88;;;9.30;99.90;;;;;;5097395;28;20044;-72
2023/04/12 02:40:54;;;;;;;14.63;2.25;;;9.20;99.90;;;;;;5097254;28;20036;-72
2023/04/12 02:43:20;;;;;;;8.95;2.05;;;9.20;99.90;;;;;;5097035;28;20429;-72
2023/04/12 02:45:47;;;;;;;6.95;2.05;;;9.40;99.90;;;;;;5097013;28;20039;-72
2023/04/12 02:48:12;;;;;;;8.65;1.90;;;9.40;99.90;;;;;;5096920;28;20448;-72
2023/04/12 02:50:38;;;;;;;9.73;1.80;;;9.40;99.90;;;;;;5095879;28;20078;-72
2023/04/12 02:53:04;;;;;;;8.73;2.20;;;9.30;99.90;;;;;;5096855;28;20047;-72
2023/04/12 02:55:29;;;;;;;9.30;1.98;;;9.20;99.90;;;;;;5097154;28;20036;-73
2023/04/12 02:57:56;;;;;;;10.50;2.10;;;9.10;99.90;;;;;;5097072;28;20092;-72
2023/04/12 03:00:22;;;;;;;10.10;2.13;;;9.10;99.90;;;;;;5097293;28;20126;-72
2023/04/12 03:02:50;;;;;;;5.47;2.00;;;8.90;99.90;;;;;;5096733;28;20345;-72
2023/04/12 03:05:16;;;;;;;10.90;2.10;;;9.00;99.90;;;;;;5097033;28;20044;-72
2023/04/12 03:07:42;;;;;;;9.73;2.55;;;9.00;99.90;;;;;;5097001;28;20078;-73
2023/04/12 03:10:10;;;;;;;9.98;1.70;;;9.10;99.90;;;;;;5096996;28;20047;-72
2023/04/12 03:12:35;;;;;;;9.65;1.70;;;9.10;99.90;;;;;;5095894;28;20147;-73
2023/04/12 03:15:01;;;;;;;11.98;2.15;;;9.30;99.90;;;;;;5096887;28;20469;-72
2023/04/12 03:17:27;;;;;;;11.52;1.80;;;9.30;99.90;;;;;;5096911;28;20111;-72
2023/04/12 03:19:54;;;;;;;5.93;1.73;;;9.20;99.90;;;;;;5096453;28;20325;-72
2023/04/12 03:22:21;;;;;;;10.02;1.65;;;9.20;99.90;;;;;;5096811;28;20067;-72
2023/04/12 03:24:48;;;;;;;7.78;2.03;;;9.20;99.90;;;;;;5096838;28;20329;-72
2023/04/12 03:27:14;;;;;;;9.82;1.50;;;9.20;99.90;;;;;;5096523;28;20044;-72
2023/04/12 03:29:39;;;;;;;6.45;1.45;;;9.20;99.90;;;;;;5096826;28;20046;-72
2023/04/12 03:32:05;;;;;;;6.78;1.70;;;9.20;99.90;;;;;;5096777;28;20379;-72
2023/04/12 03:34:31;;;;;;;9.07;1.50;;;9.10;99.90;;;;;;5097044;28;20362;-73
2023/04/12 03:36:57;;;;;;;6.28;1.35;;;9.20;99.90;;;;;;5096765;28;20119;-72
2023/04/12 03:39:23;;;;;;;11.10;1.65;;;9.20;99.90;;;;;;5096968;28;20079;-72
2023/04/12 03:41:49;;;;;;;6.90;1.40;;;9.40;99.90;;;;;;5096649;28;20076;-72
2023/04/12 03:44:15;;;;;;;8.82;1.27;;;9.40;99.90;;;;;;5095385;28;20486;-72
2023/04/12 03:46:41;;;;;;;5.35;1.30;;;9.30;99.90;;;;;;5096649;28;20089;-72
2023/04/12 03:49:06;;;;;;;5.63;1.20;;;9.20;99.90;;;;;;5096661;28;20058;-72
2023/04/12 03:51:32;;;;;;;7.00;1.38;;;9.20;99.90;;;;;;5096219;28;20036;-72
2023/04/12 03:53:58;;;;;;;4.63;1.20;;;9.30;99.90;;;;;;5096576;28;20043;-72
2023/04/12 03:56:24;;;;;;;5.50;1.30;;;9.30;99.90;;;;;;5095248;28;20048;-73
2023/04/12 03:58:49;;;;;;;7.25;1.20;;;9.30;99.90;;;;;;5096552;28;20044;-72
2023/04/12 04:01:16;;;;;;;7.25;1.63;;;9.30;99.90;;;;;;5098475;28;20329;-72
2023/04/12 04:03:43;;;;;;;7.22;1.70;;;9.20;99.90;;;;;;5099898;28;20048;-73
2023/04/12 04:06:10;;;;;;;7.30;1.40;;;9.30;99.90;;;;;;5100362;28;20050;-72
2023/04/12 04:08:36;;;;;;;6.38;1.30;;;9.20;99.90;;;;;;5100330;28;20381;-72
2023/04/12 04:11:02;;;;;;;6.13;1.38;;;9.10;99.90;;;;;;5099943;28;20043;-72
2023/04/12 04:13:28;;;;;;;9.10;1.83;;;9.10;99.90;;;;;;5100185;28;20036;-72
2023/04/12 04:16:03;;;;;;;13.25;1.77;;;9.20;99.90;;;;;;5100117;28;20384;-73
2023/04/12 04:18:29;;;;;;;7.00;1.60;;;9.20;99.90;;;;;;5100101;28;20119;-72
2023/04/12 04:20:55;;;;;;;10.90;1.60;;;9.10;99.90;;;;;;5099617;28;20036;-72
2023/04/12 04:23:22;;;;;;;6.57;1.73;;;9.10;99.90;;;;;;5099974;28;20044;-72
2023/04/12 04:25:48;;;;;;;5.43;1.75;;;9.10;99.90;;;;;;5099923;28;20051;-72
2023/04/12 04:28:14;;;;;;;7.55;2.20;;;9.00;99.90;;;;;;5099882;28;20329;-72
2023/04/12 04:30:40;;;;;;;6.75;1.70;;;9.10;99.90;;;;;;5099564;28;20546;-72
2023/04/12 04:33:07;;;;;;;8.73;1.90;;;9.10;99.90;;;;;;5099828;28;20054;-72
2023/04/12 04:35:33;;;;;;;5.18;1.77;;;9.00;99.90;;;;;;5099763;28;20043;-72
2023/04/12 04:38:00;;;;;;;12.35;2.47;;;8.90;99.90;;;;;;5099378;28;20047;-72
2023/04/12 04:40:26;;;;;;;7.15;2.10;;;9.00;99.90;;;;;;5099605;28;20044;-72
2023/04/12 04:42:54;;;;;;;8.23;2.25;;;9.10;99.90;;;;;;5099288;28;20444;-71
2023/04/12 04:45:25;;;;;;;9.88;2.40;;;9.10;99.90;;;;;;5099572;28;20032;-72
2023/04/12 04:47:54;;;;;;;9.43;2.20;;;9.10;99.90;;;;;;5099490;28;20378;-71
2023/04/12 04:50:22;;;;;;;10.45;2.25;;;9.00;99.90;;;;;;5099082;28;20039;-72
2023/04/12 04:52:51;;;;;;;9.52;2.33;;;8.90;99.90;;;;;;5099125;28;20349;-71
2023/04/12 04:55:17;;;;;;;8.98;2.22;;;8.90;99.90;;;;;;5099417;28;20062;-71
2023/04/12 04:57:43;;;;;;;10.80;2.20;;;8.90;99.90;;;;;;5099013;28;20040;-71
2023/04/12 05:00:12;;;;;;;8.63;2.33;;;8.90;99.90;;;;;;5098269;28;20039;-71
2023/04/12 05:02:41;;;;;;;9.43;2.63;;;8.80;99.90;;;;;;5098843;28;20052;-71
2023/04/12 05:05:14;;;;;;;11.15;2.50;;;8.70;99.90;;;;;;5099150;28;20123;-71
2023/04/12 05:07:42;;;;;;;9.25;2.65;;;8.70;99.90;;;;;;5098114;28;20040;-71
2023/04/12 05:10:09;;;;;;;7.97;2.40;;;8.70;99.90;;;;;;5099042;28;20098;-71
2023/04/12 05:12:35;;;;;;;12.05;2.63;;;8.70;99.90;;;;;;5098382;28;20051;-71
2023/04/12 05:15:02;;;;;;;9.43;3.38;;;8.80;99.90;;;;;;5098649;28;20048;-72
2023/04/12 05:17:28;;;;;;;10.10;3.22;;;8.90;99.90;;;;;;5098611;28;20036;-71
2023/04/12 05:19:53;;;;;;;7.50;2.67;;;9.10;99.90;;;;;;5098467;28;20039;-71
2023/04/12 05:22:20;;;;;;;8.43;2.60;;;8.90;99.90;;;;;;5098818;28;20044;-71
2023/04/12 05:24:47;;;;;;;11.20;3.00;;;8.90;99.90;;;;;;5097437;28;20440;-71
2023/04/12 05:27:15;;;;;;;12.18;3.30;;;8.90;99.90;;;;;;5098732;28;20071;-71
2023/04/12 05:29:41;;;;;;;8.13;2.72;;;8.90;99.90;;;;;;5098686;28;20040;-71
2023/04/12 05:32:07;;;;;;;10.23;2.95;;;9.00;99.90;;;;;;5098626;28;20036;-71
2023/04/12 05:34:33;;;;;;;7.93;2.85;;;9.00;99.90;;;;;;5098637;28;20310;-71
2023/04/12 05:36:58;;;;;;;12.60;3.20;;;8.90;99.90;;;;;;5098573;28;20044;-71
2023/04/12 05:39:25;;;;;;;16.65;3.30;;;8.80;99.90;;;;;;5098517;28;20123;-71
2023/04/12 05:41:50;;;;;;;9.23;3.10;;;8.80;99.90;;;;;;5098096;28;20127;-71
2023/04/12 05:44:17;;;;;;;13.95;3.50;;;8.80;99.90;;;;;;5098131;28;20075;-71
2023/04/12 05:46:43;;;;;;;17.65;2.92;;;8.80;99.90;;;;;;5098383;28;20090;-71
2023/04/12 05:49:08;;;;;;;10.63;3.70;;;8.90;99.90;;;;;;5098369;28;20031;-71
2023/04/12 05:51:34;;;;;;;8.88;2.80;;;9.00;99.90;;;;;;5097624;28;20433;-71
2023/04/12 05:54:00;;;;;;;8.95;3.15;;;8.90;99.90;;;;;;5097894;28;20311;-71
2023/04/12 05:56:26;;;;;;;13.90;3.50;;;8.90;99.90;;;;;;5097940;28;20049;-71
2023/04/12 05:58:51;;;;;;;12.25;3.00;;;8.70;99.90;;;;;;5098169;28;20024;-71
2023/04/12 06:01:18;;;;;;;7.38;2.85;;;8.80;99.90;;;;;;5098069;28;20333;-71
2023/04/12 06:03:45;;;;;;;10.45;3.00;;;8.90;99.90;;;;;;5097702;28;20080;-71
2023/04/12 06:06:11;;;;;;;8.98;2.63;;;8.90;99.90;;;;;;5096930;28;20378;-71
2023/04/12 06:08:37;;;;;;;5.15;2.72;;;8.80;99.90;;;;;;5096898;28;20051;-71
2023/04/12 06:11:07;;;;;;;10.73;2.80;;;8.90;99.90;;;;;;5096604;28;20028;-71
2023/04/12 06:13:32;;;;;;;11.07;3.00;;;8.90;99.90;;;;;;5097583;28;20032;-71
2023/04/12 06:15:58;;;;;;;11.15;2.60;;;8.80;99.90;;;;;;5097797;28;20039;-71
2023/04/12 06:18:24;;;;;;;10.20;2.95;;;8.90;99.90;;;;;;5097794;28;20418;-71
2023/04/12 06:20:50;;;;;;;6.57;2.75;;;8.90;99.90;;;;;;5097320;28;20044;-71
2023/04/12 06:23:18;;;;;;;8.73;2.42;;;8.80;99.90;;;;;;5096484;28;20036;-71
2023/04/12 06:25:43;;;;;;;8.27;2.63;;;8.70;99.90;;;;;;5095624;28;20043;-71
2023/04/12 06:28:09;;;;;;;7.10;2.63;;;8.70;99.90;;;;;;5097584;28;20082;-71
2023/04/12 06:30:35;;;;;;;11.50;3.30;;;8.70;99.90;;;;;;5097206;28;20044;-71
2023/04/12 06:33:00;;;;;;;9.38;3.10;;;8.60;99.90;;;;;;5097499;28;20048;-71
2023/04/12 06:35:26;;;;;;;7.05;2.60;;;8.60;99.90;;;;;;5097465;28;20074;-71
2023/04/12 06:37:52;;;;;;;11.00;3.25;;;8.60;99.90;;;;;;5097404;28;20047;-71
2023/04/12 06:40:17;;;;;;;8.43;2.60;;;8.50;99.90;;;;;;5097402;28;20040;-71
2023/04/12 06:42:43;;;;;;;7.38;2.38;;;8.50;99.90;;;;;;5097308;28;20070;-71
2023/04/12 06:45:10;;;;;;;10.35;2.85;;;8.50;99.90;;;;;;5097270;28;20402;-71
2023/04/12 06:47:35;;;;;;;11.00;3.30;;;8.60;99.90;;;;;;5097269;28;20044;-72
2023/04/12 06:50:01;;;;;;;6.85;2.60;;;8.70;99.90;;;;;;5096541;28;20050;-71
2023/04/12 06:52:27;;;;;;;10.05;3.10;;;8.80;99.90;;;;;;5097217;28;20050;-71
2023/04/12 06:54:55;;;;;;;6.85;2.63;;;8.90;99.90;;;;;;5097139;28;20031;-71
2023/04/12 06:57:20;;;;;;;9.73;3.40;;;8.90;99.90;;;;;;5096906;28;20039;-71
2023/04/12 06:59:46;;;;;;;9.98;3.30;;;8.90;99.90;;;;;;5097055;28;20107;-71
2023/04/12 07:02:12;;;;;;;9.43;3.25;;;9.00;99.90;;;;;;5095985;28;20044;-71
2023/04/12 07:04:37;;;;;;;7.55;3.17;;;8.80;99.90;;;;;;5095403;28;20036;-71
2023/04/12 07:07:03;;;;;;;6.72;2.90;;;8.70;99.90;;;;;;5096025;28;20035;-71
2023/04/12 07:09:32;;;;;;;8.73;3.72;;;8.60;99.90;;;;;;5094380;28;20036;-71
2023/04/12 07:11:59;;;;;;;6.18;2.85;;;8.60;99.90;;;;;;5096973;28;20371;-71
2023/04/12 07:14:25;;;;;;;10.27;3.63;;;8.80;99.90;;;;;;5096965;28;20329;-71
2023/04/12 07:16:50;;;;;;;7.82;2.90;;;8.70;99.90;;;;;;5096596;28;20052;-70
2023/04/12 07:19:16;;;;;;;10.20;3.20;;;8.70;99.90;;;;;;5096846;28;20044;-71
2023/04/12 07:21:42;;;;;;;10.02;3.03;;;8.80;99.90;;;;;;5096396;28;20040;-71
2023/04/12 07:24:07;;;;;;;7.55;3.05;;;8.70;99.90;;;;;;5096874;28;20032;-71
2023/04/12 07:26:33;;;;;;;7.57;3.20;;;8.70;99.90;;;;;;5096459;28;20040;-71
2023/04/12 07:28:59;;;;;;;7.50;3.42;;;8.90;99.90;;;;;;5096785;28;20082;-71
2023/04/12 07:31:24;;;;;;;7.55;3.22;;;8.90;99.90;;;;;;5096828;28;20040;-71
2023/04/12 07:33:50;;;;;;;8.65;3.60;;;8.80;99.90;;;;;;5096743;28;20418;-68
2023/04/12 07:36:19;;;;;;;7.93;3.05;;;8.80;99.90;;;;;;5098956;28;20048;-67
2023/04/12 07:38:45;;;;;;;5.40;3.42;;;8.70;99.90;;;;;;5100886;28;20075;-67
2023/04/12 07:41:11;;;;;;;9.45;3.10;;;8.80;99.90;;;;;;5100747;28;20076;-68
2023/04/12 07:43:37;;;;;;;10.88;3.67;;;8.80;99.90;;;;;;5100725;28;20094;-68
2023/04/12 07:46:06;;;;;;;6.90;3.03;;;8.90;99.90;;;;;;5116493;28;20035;-68
2023/04/12 07:48:32;;;;;;;9.27;4.43;;;9.10;99.90;;;;;;5100651;28;20059;-69
2023/04/12 07:50:57;;;;;;;5.72;2.78;;;9.20;99.90;;;;;;5099002;28;20044;-68
2023/04/12 07:53:25;;;;;;;5.80;3.00;;;9.20;99.90;;;;;;5100517;28;20032;-68
2023/04/12 07:55:51;;;;;;;5.50;3.63;;;9.30;99.90;;;;;;5100550;28;20063;-68
2023/04/12 07:58:18;;;;;;;6.13;3.88;;;9.40;99.90;;;;;;5100582;28;20040;-68
2023/04/12 08:00:44;;;;;;;10.73;4.72;;;9.50;99.90;;;;;;5100358;28;20047;-67
2023/04/12 08:03:11;;;;;;;10.32;4.10;;;9.40;99.90;;;;;;5100045;28;20043;-67
2023/04/12 08:05:37;;;;;;;13.98;4.20;;;9.40;99.90;;;;;;5100328;28;20431;-68
2023/04/12 08:08:03;;;;;;;5.53;3.42;;;9.20;99.90;;;;;;5099305;28;20168;-68
2023/04/12 08:10:30;;;;;;;8.65;4.40;;;9.10;99.90;;;;;;5100005;28;20032;-68
2023/04/12 08:12:55;;;;;;;7.93;3.80;;;9.10;99.90;;;;;;5100189;28;20303;-68
2023/04/12 08:15:21;;;;;;;12.88;4.72;;;9.10;99.90;;;;;;5099831;28;20040;-68
2023/04/12 08:17:47;;;;;;;9.52;4.60;;;9.10;99.90;;;;;;5099724;28;20036;-68
2023/04/12 08:20:14;;;;;;;8.77;4.45;;;9.30;99.90;;;;;;5099613;28;20066;-68
2023/04/12 08:22:41;;;;;;;7.25;3.67;;;9.30;99.90;;;;;;5099631;28;20040;-68
2023/04/12 08:25:07;;;;;;;6.72;3.70;;;9.50;99.90;;;;;;5099939;28;20036;-68
2023/04/12 08:27:33;;;;;;;8.23;4.30;;;9.60;99.90;;;;;;5099609;28;20119;-68
2023/04/12 08:29:59;;;;;;;8.90;4.10;;;9.40;99.90;;;;;;5115882;28;20067;-68
2023/04/12 08:32:25;;;;;;;10.15;4.90;;;9.60;99.90;;;;;;5099761;28;20051;-68
2023/04/12 08:34:51;;;;;;;6.28;3.78;;;9.50;99.90;;;;;;5099503;28;20345;-68
2023/04/12 08:37:16;;;;;;;5.82;3.78;;;9.40;99.90;;;;;;5115745;28;20075;-69
2023/04/12 08:39:42;;;;;;;6.68;3.30;;;9.20;99.90;;;;;;5099630;28;20093;-68
2023/04/12 08:42:09;;;;;;;8.93;3.97;;;9.00;99.90;;;;;;5098347;28;20044;-68
2023/04/12 08:44:36;;;;;;;5.35;3.75;;;9.10;99.90;;;;;;5099544;28;20043;-68
2023/04/12 08:47:08;;;;;;;6.93;3.78;;;9.00;99.90;;;;;;5098516;28;20040;-68
2023/04/12 08:49:34;;;;;;;7.45;3.50;;;9.00;99.90;;;;;;5099455;28;20111;-68
2023/04/12 08:52:05;;;;;;;6.38;3.88;;;9.00;99.90;;;;;;5076569;28;20071;-68
2023/04/12 08:54:32;;;;;;;5.18;4.25;;;9.10;99.90;;;;;;5099003;28;20039;-68
2023/04/12 08:57:03;;;;;;;7.57;4.82;;;9.30;99.90;;;;;;5092243;28;20029;-68
2023/04/12 08:59:30;;;;;;;5.72;4.50;;;9.50;99.90;;;;;;5078278;28;20075;-68
2023/04/12 09:01:57;;;;;;;5.60;4.07;;;9.60;99.90;;;;;;5078511;28;20114;-68
2023/04/12 09:04:23;;;;;;;7.55;4.70;;;9.70;99.90;;;;;;5078516;28;20044;-69
2023/04/12 09:06:49;;;;;;;5.70;4.22;;;9.80;99.90;;;;;;5078753;28;20032;-70
2023/04/12 09:09:15;;;;;;;8.25;3.85;;;9.90;99.90;;;;;;5078478;28;20052;-69
2023/04/12 09:11:41;;;;;;;5.78;3.85;;;10.00;99.90;;;;;;5078450;28;20423;-69
2023/04/12 09:14:24;;;;;;;4.85;3.53;;;10.00;99.90;;;;;;5078613;28;20044;-69
2023/04/12 09:16:50;;;;;;;5.32;4.78;;;9.80;99.90;;;;;;5078617;28;20052;-69
2023/04/12 09:19:33;;;;;;;7.20;4.75;;;9.90;99.90;;;;;;5079051;28;20032;-68
2023/04/12 09:21:59;;;;;;;7.75;4.93;;;9.80;99.90;;;;;;5088767;28;20079;-69
2023/04/12 09:24:25;;;;;;;7.07;5.38;;;10.00;99.90;;;;;;5098634;28;20032;-69
2023/04/12 09:27:04;;;;;;;7.03;5.60;;;9.90;99.90;;;;;;5080811;28;20043;-69
2023/04/12 09:29:31;;;;;;;8.75;5.80;;;10.00;99.90;;;;;;5078573;28;20063;-71
2023/04/12 09:32:05;;;;;;;4.25;3.38;;;10.00;99.90;;;;;;5078076;28;20044;-71
2023/04/12 09:34:32;;;;;;;8.18;4.90;;;10.10;99.90;;;;;;5089599;28;20316;-69
2023/04/12 09:36:58;;;;;;;7.68;5.43;;;10.20;99.90;;;;;;5097411;28;20426;-70
2023/04/12 09:39:33;;;;;;;7.72;5.13;;;10.30;99.90;;;;;;5077997;28;20040;-70
2023/04/12 09:42:13;;;;;;;7.97;5.45;;;10.30;99.90;;;;;;5078031;28;20036;-70
2023/04/12 09:44:39;;;;;;;6.40;5.80;;;10.40;99.90;;;;;;5077786;28;20101;-70
2023/04/12 09:47:05;;;;;;;9.30;7.15;;;10.50;99.90;;;;;;5077944;28;20029;-71
2023/04/12 09:49:38;;;;;;;8.13;6.75;;;10.60;99.90;;;;;;5077945;28;20045;-72
2023/04/12 09:52:09;;;;;;;10.65;7.40;;;10.70;99.90;;;;;;5092223;28;20382;-72
2023/04/12 09:54:42;;;;;;;8.35;7.05;;;10.70;99.90;;;;;;5096801;28;20071;-75
2023/04/12 09:57:08;;;;;;;7.95;6.68;;;10.80;99.90;;;;;;5096871;28;20043;-70
2023/04/12 09:59:40;;;;;;;11.77;7.78;;;10.80;99.90;;;;;;5097969;28;20043;-68
2023/04/12 10:02:17;;;;;;;8.88;7.72;;;11.00;99.90;;;;;;5097800;28;20384;-69
2023/04/12 10:04:47;;;;;;;8.70;7.75;;;10.90;99.90;;;;;;5098079;28;20105;-68
2023/04/12 10:07:13;;;;;;;8.80;7.60;;;10.90;99.90;;;;;;5098008;28;20040;-68
2023/04/12 10:09:39;;;;;;;11.23;7.85;;;10.80;99.90;;;;;;5097996;28;20032;-68
2023/04/12 10:12:05;;;;;;;12.15;8.15;;;10.80;99.90;;;;;;5098470;28;20051;-68
2023/04/12 10:14:31;;;;;;;11.60;7.22;;;10.90;99.90;;;;;;5097907;28;20060;-68
2023/04/12 10:16:59;;;;;;;8.20;7.20;;;10.90;99.90;;;;;;5096526;28;20048;-67
2023/04/12 10:19:25;;;;;;;10.38;8.40;;;11.00;99.90;;;;;;5097753;28;20044;-68
2023/04/12 10:21:52;;;;;;;9.10;7.20;;;11.20;99.90;;;;;;5096537;28;20075;-68
2023/04/12 10:24:21;;;;;;;14.35;7.70;;;11.20;99.90;;;;;;5097686;28;20036;-68
2023/04/12 10:26:49;;;;;;;12.10;7.15;;;11.20;99.90;;;;;;5097356;28;20043;-68
2023/04/12 10:29:24;;;;;;;11.75;6.85;;;11.40;99.90;;;;;;5097570;28;20040;-68
2023/04/12 10:31:50;;;;;;;12.35;6.93;;;11.40;99.90;;;;;;5097646;28;20055;-67
2023/04/12 10:34:16;;;;;;;10.45;6.50;;;11.50;99.90;;;;;;5097236;28;20441;-68
2023/04/12 10:36:58;;;;;;;13.80;6.93;;;11.90;99.90;;;;;;5097518;28;20090;-68
2023/04/12 10:39:46;;;;;;;10.00;5.95;;;12.10;99.90;;;;;;5097412;28;20044;-68
2023/04/12 10:42:17;;;;;;;7.78;5.38;;;12.30;99.90;;;;;;5097052;28;20044;-68
2023/04/12 10:44:44;;;;;;;8.85;5.22;;;12.30;99.90;;;;;;5097352;28;20036;-68
2023/04/12 10:47:10;;;;;;;8.77;5.35;;;12.50;99.90;;;;;;5096370;28;20071;-68
2023/04/12 10:49:36;;;;;;;8.35;5.30;;;12.70;99.90;;;;;;5096309;28;20078;-68
2023/04/12 10:52:08;;;;;;;13.48;4.53;;;13.00;99.90;;;;;;5096528;28;20079;-68
2023/04/12 10:54:34;;;;;;;11.25;4.47;;;12.60;99.90;;;;;;5097132;28;20055;-68
2023/04/12 10:57:01;;;;;;;15.10;4.90;;;12.60;99.90;;;;;;5097202;28;20036;-68
2023/04/12 10:59:55;;;;;;;10.52;4.95;;;12.60;99.90;;;;;;5097147;28;20110;-68
2023/04/12 11:02:21;;;;;;;12.43;3.63;;;12.70;99.90;;;;;;5096549;28;20433;-68
2023/04/12 11:05:08;;;;;;;9.88;3.58;;;12.80;99.90;;;;;;5096768;28;20121;-68
2023/04/12 11:07:42;;;;;;;10.82;3.22;;;12.40;99.90;;;;;;5097099;28;20036;-68
2023/04/12 11:10:15;;;;;;;16.13;3.13;;;12.40;99.90;;;;;;5095161;28;20040;-68
2023/04/12 11:12:46;;;;;;;16.27;3.55;;;12.80;99.90;;;;;;5096983;28;20040;-68
2023/04/12 11:15:12;;;;;;;15.32;3.20;;;13.00;99.90;;;;;;5097012;28;20079;-68
2023/04/12 11:17:38;;;;;;;13.18;2.92;;;13.00;99.90;;;;;;5096985;28;20352;-68
2023/04/12 11:20:09;;;;;;;10.23;2.70;;;13.10;99.90;;;;;;5096619;28;20040;-68
2023/04/12 11:22:37;;;;;;;11.32;2.70;;;12.90;99.90;;;;;;5096848;28;20046;-68
2023/04/12 11:25:03;;;;;;;12.52;3.20;;;12.90;99.90;;;;;;5096847;28;20031;-67
2023/04/12 11:27:30;;;;;;;9.10;2.58;;;13.20;99.90;;;;;;5096817;28;20042;-68
2023/04/12 11:29:58;;;;;;;8.20;2.63;;;13.00;99.90;;;;;;5096801;28;20089;-67
2023/04/12 11:32:29;;;;;;;11.30;2.67;;;13.20;99.90;;;;;;5096690;28;20047;-67
2023/04/12 11:34:57;;;;;;;10.00;3.20;;;13.30;99.90;;;;;;5096533;28;20433;-68
2023/04/12 11:37:25;;;;;;;9.88;2.83;;;13.70;99.90;;;;;;5096708;28;20032;-68
2023/04/12 11:39:52;;;;;;;10.73;3.95;;;13.80;99.90;;;;;;5096478;28;20052;-67
2023/04/12 11:42:21;;;;;;;10.63;2.55;;;13.80;99.90;;;;;;5095340;28;20040;-68
2023/04/12 11:44:47;;;;;;;10.40;2.53;;;14.00;99.90;;;;;;5095715;28;20055;-68
2023/04/12 11:47:20;;;;;;;8.05;2.13;;;14.20;99.90;;;;;;5096500;28;20421;-68
2023/04/12 11:49:48;;;;;;;9.65;2.10;;;14.20;99.90;;;;;;5096333;28;20068;-68
2023/04/12 11:52:15;;;;;;;7.15;1.88;;;14.00;99.90;;;;;;5096200;28;20044;-68
2023/04/12 11:54:46;;;;;;;10.75;1.67;;;14.10;99.90;;;;;;5096601;28;20120;-68
2023/04/12 11:57:13;;;;;;;13.35;2.33;;;14.20;99.90;;;;;;5096294;28;20428;-68
2023/04/12 11:59:41;;;;;;;13.77;1.63;;;14.40;99.90;;;;;;5096203;28;20429;-68
2023/04/12 12:02:08;;;;;;;16.77;2.55;;;13.80;99.90;;;;;;5096231;28;20044;-68
2023/04/12 12:04:34;;;;;;;10.73;1.88;;;13.40;99.90;;;;;;5096518;28;20040;-68
2023/04/12 12:07:00;;;;;;;12.02;2.22;;;13.40;99.90;;;;;;5096159;28;20036;-68
2023/04/12 12:09:26;;;;;;;12.50;2.00;;;13.40;99.90;;;;;;5095309;28;20040;-68
2023/04/12 12:11:53;;;;;;;10.38;1.90;;;13.40;99.90;;;;;;5096219;28;20328;-68
2023/04/12 12:14:20;;;;;;;11.27;2.40;;;13.70;99.90;;;;;;5096442;28;20048;-68
2023/04/12 12:16:57;;;;;;;11.18;1.92;;;14.10;99.90;;;;;;5096413;28;20479;-68
2023/04/12 12:19:31;;;;;;;15.15;2.40;;;14.20;99.90;;;;;;5096406;28;20311;-68
2023/04/12 12:22:16;;;;;;;17.58;2.75;;;14.40;99.90;;;;;;5097366;28;20032;-68
2023/04/12 12:24:58;;;;;;;13.88;2.05;;;14.30;99.90;;;;;;5099690;28;20429;-68
2023/04/12 12:27:33;;;;;;;14.90;2.05;;;14.10;99.90;;;;;;5099979;28;20039;-68
2023/04/12 12:30:01;;;;;;;16.38;2.55;;;13.80;99.90;;;;;;5099278;28;20307;-68
2023/04/12 12:32:32;;;;;;;13.05;2.05;;;13.60;99.90;;;;;;5099898;28;20036;-68
2023/04/12 12:34:57;;;;;;;20.73;2.92;;;13.40;99.90;;;;;;5099896;28;20068;-68
2023/04/12 12:37:25;;;;;;;17.98;3.15;;;12.90;99.90;;;;;;5099797;28;20064;-68
2023/04/12 12:40:12;;;;;;;16.60;2.47;;;12.60;99.90;;;;;;5098683;28;20043;-68
2023/04/12 12:42:43;;;;;;;16.90;3.30;;;12.60;99.90;;;;;;5099328;28;20444;-67
2023/04/12 12:45:09;;;;;;;15.57;2.10;;;12.50;99.90;;;;;;5098393;28;20042;-69
2023/04/12 12:47:49;;;;;;;18.25;2.17;;;12.60;99.90;;;;;;5099606;28;20032;-68
2023/04/12 12:50:16;;;;;;;19.35;2.67;;;12.90;99.90;;;;;;5099573;28;20118;-68
2023/04/12 12:52:45;;;;;;;14.48;2.53;;;13.40;99.90;;;;;;5099433;28;20044;-68
2023/04/12 12:55:15;;;;;;;16.02;2.72;;;13.40;99.90;;;;;;5099462;28;20047;-68